sensor_id;sensor_type;location;lat;lon;timestamp;P1;durP1;ratioP1;P2;durP2;ratioP2
66145;SDS011;52948;60.040;30.320;2024-03-08T00:03:05;3.53;;;2.50;;
66145;SDS011;52948;60.040;30.320;2024-03-08T00:08:07;3.67;;;2.58;;
66145;SDS011;52948;60.040;30.320;2024-03-08T00:13:11;6.07;;;2.67;;
66145;SDS011;52948;60.040;30.320;2024-03-08T00:18:13;4.28;;;2.88;;
66145;SDS011;52948;60.040;30.320;2024-03-08T00:23:15;4.28;;;2.55;;
66145;SDS011;52948;60.040;30.320;2024-03-08T00:28:18;4.03;;;2.55;;
66145;SDS011;52948;60.040;30.320;2024-03-08T00:33:20;4.65;;;2.85;;
66145;SDS011;52948;60.040;30.320;2024-03-08T00:38:23;5.53;;;3.67;;
66145;SDS011;52948;60.040;30.320;2024-03-08T00:43:25;5.65;;;2.88;;
66145;SDS011;52948;60.040;30.320;2024-03-08T00:48:27;4.18;;;2.70;;
66145;SDS011;52948;60.040;30.320;2024-03-08T00:53:30;5.55;;;3.20;;
66145;SDS011;52948;60.040;30.320;2024-03-08T00:58:32;5.05;;;2.70;;
66145;SDS011;52948;60.040;30.320;2024-03-08T01:03:34;4.80;;;2.58;;
66145;SDS011;52948;60.040;30.320;2024-03-08T01:08:36;4.05;;;2.78;;
66145;SDS011;52948;60.040;30.320;2024-03-08T01:13:40;4.10;;;2.35;;
66145;SDS011;52948;60.040;30.320;2024-03-08T01:18:42;3.80;;;2.70;;
66145;SDS011;52948;60.040;30.320;2024-03-08T01:23:45;5.90;;;3.05;;
66145;SDS011;52948;60.040;30.320;2024-03-08T01:28:47;3.05;;;2.28;;
66145;SDS011;52948;60.040;30.320;2024-03-08T01:33:50;3.92;;;2.38;;
66145;SDS011;52948;60.040;30.320;2024-03-08T01:38:53;5.72;;;3.00;;
66145;SDS011;52948;60.040;30.320;2024-03-08T01:43:55;4.55;;;2.50;;
66145;SDS011;52948;60.040;30.320;2024-03-08T01:48:58;4.65;;;2.78;;
66145;SDS011;52948;60.040;30.320;2024-03-08T01:54:02;6.43;;;3.28;;
66145;SDS011;52948;60.040;30.320;2024-03-08T01:59:05;5.90;;;3.40;;
66145;SDS011;52948;60.040;30.320;2024-03-08T02:04:09;5.50;;;3.03;;
66145;SDS011;52948;60.040;30.320;2024-03-08T02:09:12;6.35;;;3.03;;
66145;SDS011;52948;60.040;30.320;2024-03-08T02:14:16;4.65;;;2.95;;
66145;SDS011;52948;60.040;30.320;2024-03-08T02:19:21;4.72;;;2.72;;
66145;SDS011;52948;60.040;30.320;2024-03-08T02:24:23;4.32;;;2.60;;
66145;SDS011;52948;60.040;30.320;2024-03-08T02:29:27;5.47;;;3.08;;
66145;SDS011;52948;60.040;30.320;2024-03-08T02:34:31;5.03;;;2.72;;
66145;SDS011;52948;60.040;30.320;2024-03-08T02:39:33;3.92;;;2.88;;
66145;SDS011;52948;60.040;30.320;2024-03-08T02:44:42;5.20;;;3.22;;
66145;SDS011;52948;60.040;30.320;2024-03-08T02:49:45;4.30;;;2.85;;
66145;SDS011;52948;60.040;30.320;2024-03-08T02:54:48;4.18;;;2.63;;
66145;SDS011;52948;60.040;30.320;2024-03-08T02:59:51;8.13;;;2.72;;
66145;SDS011;52948;60.040;30.320;2024-03-08T03:04:57;4.95;;;2.70;;
66145;SDS011;52948;60.040;30.320;2024-03-08T03:10:00;4.80;;;2.60;;
66145;SDS011;52948;60.040;30.320;2024-03-08T03:15:02;6.68;;;2.90;;
66145;SDS011;52948;60.040;30.320;2024-03-08T03:20:06;4.82;;;2.30;;
66145;SDS011;52948;60.040;30.320;2024-03-08T03:25:12;3.65;;;2.50;;
66145;SDS011;52948;60.040;30.320;2024-03-08T03:30:14;3.47;;;2.15;;
66145;SDS011;52948;60.040;30.320;2024-03-08T03:35:23;3.80;;;2.17;;
66145;SDS011;52948;60.040;30.320;2024-03-08T03:40:26;4.20;;;2.10;;
66145;SDS011;52948;60.040;30.320;2024-03-08T03:45:29;5.10;;;2.28;;
66145;SDS011;52948;60.040;30.320;2024-03-08T03:50:35;3.53;;;1.80;;
66145;SDS011;52948;60.040;30.320;2024-03-08T03:55:38;2.60;;;1.92;;
66145;SDS011;52948;60.040;30.320;2024-03-08T04:00:40;2.70;;;1.40;;
66145;SDS011;52948;60.040;30.320;2024-03-08T04:05:42;2.45;;;1.48;;
66145;SDS011;52948;60.040;30.320;2024-03-08T04:10:46;1.20;;;0.90;;
66145;SDS011;52948;60.040;30.320;2024-03-08T04:15:48;1.50;;;0.90;;
66145;SDS011;52948;60.040;30.320;2024-03-08T04:20:50;1.48;;;1.20;;
66145;SDS011;52948;60.040;30.320;2024-03-08T04:25:53;2.08;;;1.33;;
66145;SDS011;52948;60.040;30.320;2024-03-08T04:30:55;1.50;;;1.10;;
66145;SDS011;52948;60.040;30.320;2024-03-08T04:35:58;3.35;;;1.40;;
66145;SDS011;52948;60.040;30.320;2024-03-08T04:41:00;1.45;;;1.30;;
66145;SDS011;52948;60.040;30.320;2024-03-08T04:46:03;1.67;;;1.23;;
66145;SDS011;52948;60.040;30.320;2024-03-08T04:51:07;2.30;;;1.20;;
66145;SDS011;52948;60.040;30.320;2024-03-08T04:56:10;1.92;;;1.67;;
66145;SDS011;52948;60.040;30.320;2024-03-08T05:01:12;2.55;;;1.30;;
66145;SDS011;52948;60.040;30.320;2024-03-08T05:06:15;2.50;;;1.15;;
66145;SDS011;52948;60.040;30.320;2024-03-08T05:11:17;2.25;;;1.17;;
66145;SDS011;52948;60.040;30.320;2024-03-08T05:16:20;1.67;;;0.90;;
66145;SDS011;52948;60.040;30.320;2024-03-08T05:21:24;1.58;;;0.90;;
66145;SDS011;52948;60.040;30.320;2024-03-08T05:26:26;1.38;;;1.00;;
66145;SDS011;52948;60.040;30.320;2024-03-08T05:31:28;1.35;;;1.02;;
66145;SDS011;52948;60.040;30.320;2024-03-08T05:36:31;1.58;;;1.10;;
66145;SDS011;52948;60.040;30.320;2024-03-08T05:41:34;1.67;;;1.23;;
66145;SDS011;52948;60.040;30.320;2024-03-08T05:46:36;3.03;;;1.23;;
66145;SDS011;52948;60.040;30.320;2024-03-08T05:51:39;1.10;;;0.90;;
66145;SDS011;52948;60.040;30.320;2024-03-08T05:56:41;2.78;;;1.10;;
66145;SDS011;52948;60.040;30.320;2024-03-08T06:01:45;2.65;;;1.27;;
66145;SDS011;52948;60.040;30.320;2024-03-08T06:06:48;1.70;;;1.20;;
66145;SDS011;52948;60.040;30.320;2024-03-08T06:11:53;2.40;;;1.48;;
66145;SDS011;52948;60.040;30.320;2024-03-08T06:16:55;4.00;;;1.58;;
66145;SDS011;52948;60.040;30.320;2024-03-08T06:21:57;1.55;;;1.00;;
66145;SDS011;52948;60.040;30.320;2024-03-08T06:27:00;1.58;;;1.00;;
66145;SDS011;52948;60.040;30.320;2024-03-08T06:32:02;1.60;;;1.20;;
66145;SDS011;52948;60.040;30.320;2024-03-08T06:37:05;2.17;;;1.52;;
66145;SDS011;52948;60.040;30.320;2024-03-08T06:42:07;2.53;;;1.25;;
66145;SDS011;52948;60.040;30.320;2024-03-08T06:47:11;1.35;;;0.60;;
66145;SDS011;52948;60.040;30.320;2024-03-08T06:52:13;2.28;;;1.40;;
66145;SDS011;52948;60.040;30.320;2024-03-08T06:57:16;1.65;;;1.13;;
66145;SDS011;52948;60.040;30.320;2024-03-08T07:02:18;0.80;;;0.70;;
66145;SDS011;52948;60.040;30.320;2024-03-08T07:07:20;1.40;;;0.88;;
66145;SDS011;52948;60.040;30.320;2024-03-08T07:12:23;2.05;;;1.35;;
66145;SDS011;52948;60.040;30.320;2024-03-08T07:17:25;3.38;;;1.40;;
66145;SDS011;52948;60.040;30.320;2024-03-08T07:22:27;2.25;;;1.50;;
66145;SDS011;52948;60.040;30.320;2024-03-08T07:27:30;2.58;;;1.42;;
66145;SDS011;52948;60.040;30.320;2024-03-08T07:32:32;1.80;;;1.40;;
66145;SDS011;52948;60.040;30.320;2024-03-08T07:37:36;1.90;;;1.65;;
66145;SDS011;52948;60.040;30.320;2024-03-08T07:42:38;1.85;;;1.23;;
66145;SDS011;52948;60.040;30.320;2024-03-08T07:47:40;3.08;;;1.90;;
66145;SDS011;52948;60.040;30.320;2024-03-08T07:52:43;1.95;;;1.27;;
66145;SDS011;52948;60.040;30.320;2024-03-08T07:57:45;2.92;;;1.30;;
66145;SDS011;52948;60.040;30.320;2024-03-08T08:02:49;2.50;;;1.67;;
66145;SDS011;52948;60.040;30.320;2024-03-08T08:07:51;2.53;;;1.50;;
66145;SDS011;52948;60.040;30.320;2024-03-08T08:12:54;6.95;;;1.73;;
66145;SDS011;52948;60.040;30.320;2024-03-08T08:17:58;5.07;;;1.65;;
66145;SDS011;52948;60.040;30.320;2024-03-08T08:23:01;4.20;;;1.88;;
66145;SDS011;52948;60.040;30.320;2024-03-08T08:28:03;2.50;;;1.80;;
66145;SDS011;52948;60.040;30.320;2024-03-08T08:33:05;2.17;;;1.80;;
66145;SDS011;52948;60.040;30.320;2024-03-08T08:38:08;3.38;;;1.60;;
66145;SDS011;52948;60.040;30.320;2024-03-08T08:43:10;1.80;;;1.60;;
66145;SDS011;52948;60.040;30.320;2024-03-08T08:48:12;1.88;;;1.17;;
66145;SDS011;52948;60.040;30.320;2024-03-08T08:53:14;3.83;;;1.60;;
66145;SDS011;52948;60.040;30.320;2024-03-08T08:58:16;2.95;;;1.58;;
66145;SDS011;52948;60.040;30.320;2024-03-08T09:03:20;2.70;;;1.60;;
66145;SDS011;52948;60.040;30.320;2024-03-08T09:08:22;1.40;;;1.10;;
66145;SDS011;52948;60.040;30.320;2024-03-08T09:13:25;3.53;;;1.40;;
66145;SDS011;52948;60.040;30.320;2024-03-08T09:18:27;1.73;;;1.30;;
66145;SDS011;52948;60.040;30.320;2024-03-08T09:23:29;2.17;;;1.20;;
66145;SDS011;52948;60.040;30.320;2024-03-08T09:28:32;3.72;;;1.40;;
66145;SDS011;52948;60.040;30.320;2024-03-08T09:33:34;2.60;;;1.45;;
66145;SDS011;52948;60.040;30.320;2024-03-08T09:38:36;2.25;;;1.35;;
66145;SDS011;52948;60.040;30.320;2024-03-08T09:43:39;3.28;;;1.30;;
66145;SDS011;52948;60.040;30.320;2024-03-08T09:48:41;1.20;;;1.00;;
66145;SDS011;52948;60.040;30.320;2024-03-08T09:53:43;4.40;;;1.40;;
66145;SDS011;52948;60.040;30.320;2024-03-08T09:58:46;2.45;;;1.58;;
66145;SDS011;52948;60.040;30.320;2024-03-08T10:04:11;3.00;;;1.40;;
66145;SDS011;52948;60.040;30.320;2024-03-08T10:09:15;1.63;;;0.85;;
66145;SDS011;52948;60.040;30.320;2024-03-08T10:14:18;2.72;;;1.30;;
66145;SDS011;52948;60.040;30.320;2024-03-08T10:19:20;1.35;;;1.00;;
66145;SDS011;52948;60.040;30.320;2024-03-08T10:24:23;1.80;;;1.10;;
66145;SDS011;52948;60.040;30.320;2024-03-08T10:29:25;1.30;;;1.20;;
66145;SDS011;52948;60.040;30.320;2024-03-08T10:34:28;1.17;;;0.95;;
66145;SDS011;52948;60.040;30.320;2024-03-08T10:39:35;1.33;;;0.98;;
66145;SDS011;52948;60.040;30.320;2024-03-08T10:44:49;1.52;;;0.90;;
66145;SDS011;52948;60.040;30.320;2024-03-08T10:50:07;1.00;;;1.00;;
66145;SDS011;52948;60.040;30.320;2024-03-08T10:55:14;1.00;;;0.68;;
66145;SDS011;52948;60.040;30.320;2024-03-08T11:00:18;2.05;;;0.98;;
66145;SDS011;52948;60.040;30.320;2024-03-08T11:05:38;1.65;;;0.73;;
66145;SDS011;52948;60.040;30.320;2024-03-08T11:10:50;3.38;;;0.95;;
66145;SDS011;52948;60.040;30.320;2024-03-08T11:15:53;1.08;;;0.85;;
66145;SDS011;52948;60.040;30.320;2024-03-08T11:20:56;1.60;;;1.00;;
66145;SDS011;52948;60.040;30.320;2024-03-08T11:25:59;2.10;;;0.90;;
66145;SDS011;52948;60.040;30.320;2024-03-08T11:41:12;1.17;;;1.00;;
66145;SDS011;52948;60.040;30.320;2024-03-08T11:46:16;1.15;;;0.70;;
66145;SDS011;52948;60.040;30.320;2024-03-08T11:51:19;1.88;;;0.85;;
66145;SDS011;52948;60.040;30.320;2024-03-08T11:56:21;1.75;;;0.70;;
66145;SDS011;52948;60.040;30.320;2024-03-08T12:01:24;3.65;;;1.67;;
66145;SDS011;52948;60.040;30.320;2024-03-08T12:06:27;2.80;;;0.90;;
66145;SDS011;52948;60.040;30.320;2024-03-08T12:11:41;1.02;;;0.70;;
66145;SDS011;52948;60.040;30.320;2024-03-08T12:16:44;1.65;;;0.93;;
66145;SDS011;52948;60.040;30.320;2024-03-08T12:21:46;1.75;;;1.10;;
66145;SDS011;52948;60.040;30.320;2024-03-08T12:26:51;1.58;;;0.82;;
66145;SDS011;52948;60.040;30.320;2024-03-08T12:31:55;2.63;;;1.05;;
66145;SDS011;52948;60.040;30.320;2024-03-08T12:37:00;2.30;;;0.70;;
66145;SDS011;52948;60.040;30.320;2024-03-08T12:42:02;1.73;;;0.98;;
66145;SDS011;52948;60.040;30.320;2024-03-08T12:47:05;2.00;;;0.90;;
66145;SDS011;52948;60.040;30.320;2024-03-08T12:52:08;2.90;;;1.33;;
66145;SDS011;52948;60.040;30.320;2024-03-08T12:57:11;5.18;;;1.55;;
66145;SDS011;52948;60.040;30.320;2024-03-08T13:02:13;2.30;;;1.20;;
66145;SDS011;52948;60.040;30.320;2024-03-08T13:07:15;2.70;;;1.30;;
66145;SDS011;52948;60.040;30.320;2024-03-08T13:12:18;4.40;;;1.50;;
66145;SDS011;52948;60.040;30.320;2024-03-08T13:17:22;4.38;;;1.35;;
66145;SDS011;52948;60.040;30.320;2024-03-08T13:22:24;2.25;;;1.20;;
66145;SDS011;52948;60.040;30.320;2024-03-08T13:27:27;6.00;;;1.58;;
66145;SDS011;52948;60.040;30.320;2024-03-08T13:32:30;2.90;;;1.02;;
66145;SDS011;52948;60.040;30.320;2024-03-08T13:37:33;4.30;;;0.85;;
66145;SDS011;52948;60.040;30.320;2024-03-08T13:42:37;2.03;;;1.00;;
66145;SDS011;52948;60.040;30.320;2024-03-08T13:47:41;3.15;;;1.20;;
66145;SDS011;52948;60.040;30.320;2024-03-08T13:52:44;4.45;;;1.30;;
66145;SDS011;52948;60.040;30.320;2024-03-08T13:57:47;5.13;;;1.30;;
66145;SDS011;52948;60.040;30.320;2024-03-08T14:02:49;2.60;;;0.88;;
66145;SDS011;52948;60.040;30.320;2024-03-08T14:07:52;4.57;;;1.00;;
66145;SDS011;52948;60.040;30.320;2024-03-08T14:12:56;2.90;;;0.95;;
66145;SDS011;52948;60.040;30.320;2024-03-08T14:17:58;2.05;;;0.95;;
66145;SDS011;52948;60.040;30.320;2024-03-08T14:23:01;3.58;;;1.48;;
66145;SDS011;52948;60.040;30.320;2024-03-08T14:28:04;1.70;;;1.10;;
66145;SDS011;52948;60.040;30.320;2024-03-08T14:33:09;2.22;;;1.00;;
66145;SDS011;52948;60.040;30.320;2024-03-08T14:38:11;3.45;;;0.90;;
66145;SDS011;52948;60.040;30.320;2024-03-08T14:43:14;2.30;;;0.90;;
66145;SDS011;52948;60.040;30.320;2024-03-08T14:48:18;2.22;;;0.75;;
66145;SDS011;52948;60.040;30.320;2024-03-08T14:53:20;2.83;;;1.13;;
66145;SDS011;52948;60.040;30.320;2024-03-08T14:58:23;2.45;;;0.93;;
66145;SDS011;52948;60.040;30.320;2024-03-08T15:03:27;5.88;;;1.48;;
66145;SDS011;52948;60.040;30.320;2024-03-08T15:08:31;2.10;;;0.90;;
66145;SDS011;52948;60.040;30.320;2024-03-08T15:13:34;1.70;;;1.00;;
66145;SDS011;52948;60.040;30.320;2024-03-08T15:18:49;3.08;;;1.05;;
66145;SDS011;52948;60.040;30.320;2024-03-08T15:23:54;3.75;;;1.00;;
66145;SDS011;52948;60.040;30.320;2024-03-08T15:28:57;2.58;;;1.65;;
66145;SDS011;52948;60.040;30.320;2024-03-08T15:34:00;3.83;;;0.98;;
66145;SDS011;52948;60.040;30.320;2024-03-08T15:39:02;2.45;;;1.30;;
66145;SDS011;52948;60.040;30.320;2024-03-08T15:44:12;1.77;;;1.08;;
66145;SDS011;52948;60.040;30.320;2024-03-08T15:49:15;3.40;;;1.20;;
66145;SDS011;52948;60.040;30.320;2024-03-08T15:54:18;2.08;;;1.10;;
66145;SDS011;52948;60.040;30.320;2024-03-08T15:59:20;1.00;;;0.90;;
66145;SDS011;52948;60.040;30.320;2024-03-08T16:04:23;2.83;;;1.30;;
66145;SDS011;52948;60.040;30.320;2024-03-08T16:09:26;6.90;;;1.90;;
66145;SDS011;52948;60.040;30.320;2024-03-08T16:14:33;1.83;;;0.95;;
66145;SDS011;52948;60.040;30.320;2024-03-08T16:19:39;1.77;;;1.42;;
66145;SDS011;52948;60.040;30.320;2024-03-08T16:24:43;2.92;;;1.65;;
66145;SDS011;52948;60.040;30.320;2024-03-08T16:29:47;2.80;;;1.40;;
66145;SDS011;52948;60.040;30.320;2024-03-08T16:34:49;2.35;;;1.15;;
66145;SDS011;52948;60.040;30.320;2024-03-08T16:39:53;2.35;;;1.23;;
66145;SDS011;52948;60.040;30.320;2024-03-08T16:44:55;4.57;;;1.73;;
66145;SDS011;52948;60.040;30.320;2024-03-08T16:49:57;2.42;;;1.50;;
66145;SDS011;52948;60.040;30.320;2024-03-08T16:54:59;2.25;;;1.33;;
66145;SDS011;52948;60.040;30.320;2024-03-08T17:00:02;5.05;;;1.60;;
66145;SDS011;52948;60.040;30.320;2024-03-08T17:05:05;2.88;;;1.70;;
66145;SDS011;52948;60.040;30.320;2024-03-08T17:10:08;5.60;;;2.10;;
66145;SDS011;52948;60.040;30.320;2024-03-08T17:15:16;4.18;;;1.90;;
66145;SDS011;52948;60.040;30.320;2024-03-08T17:20:25;3.50;;;1.80;;
66145;SDS011;52948;60.040;30.320;2024-03-08T17:25:27;3.83;;;1.60;;
66145;SDS011;52948;60.040;30.320;2024-03-08T17:30:30;2.83;;;1.48;;
66145;SDS011;52948;60.040;30.320;2024-03-08T17:35:36;4.03;;;1.70;;
66145;SDS011;52948;60.040;30.320;2024-03-08T17:40:41;3.42;;;1.70;;
66145;SDS011;52948;60.040;30.320;2024-03-08T17:45:44;3.30;;;1.67;;
66145;SDS011;52948;60.040;30.320;2024-03-08T17:50:48;3.33;;;1.83;;
66145;SDS011;52948;60.040;30.320;2024-03-08T17:55:57;1.73;;;1.30;;
66145;SDS011;52948;60.040;30.320;2024-03-08T18:00:59;3.10;;;1.42;;
66145;SDS011;52948;60.040;30.320;2024-03-08T18:06:01;5.78;;;1.60;;
66145;SDS011;52948;60.040;30.320;2024-03-08T18:11:06;2.30;;;1.10;;
66145;SDS011;52948;60.040;30.320;2024-03-08T18:16:10;4.00;;;1.10;;
66145;SDS011;52948;60.040;30.320;2024-03-08T18:21:14;1.92;;;1.20;;
66145;SDS011;52948;60.040;30.320;2024-03-08T18:26:16;2.35;;;1.10;;
66145;SDS011;52948;60.040;30.320;2024-03-08T18:31:20;2.70;;;1.50;;
66145;SDS011;52948;60.040;30.320;2024-03-08T18:36:24;2.08;;;1.50;;
66145;SDS011;52948;60.040;30.320;2024-03-08T18:41:26;1.63;;;1.10;;
66145;SDS011;52948;60.040;30.320;2024-03-08T18:46:29;2.78;;;1.13;;
66145;SDS011;52948;60.040;30.320;2024-03-08T18:51:36;2.78;;;1.20;;
66145;SDS011;52948;60.040;30.320;2024-03-08T18:56:39;3.00;;;1.40;;
66145;SDS011;52948;60.040;30.320;2024-03-08T19:01:42;2.85;;;1.25;;
66145;SDS011;52948;60.040;30.320;2024-03-08T19:06:49;3.05;;;1.50;;
66145;SDS011;52948;60.040;30.320;2024-03-08T19:11:53;8.70;;;1.75;;
66145;SDS011;52948;60.040;30.320;2024-03-08T19:16:58;2.42;;;1.40;;
66145;SDS011;52948;60.040;30.320;2024-03-08T19:22:01;3.58;;;1.20;;
66145;SDS011;52948;60.040;30.320;2024-03-08T19:27:05;2.35;;;1.40;;
66145;SDS011;52948;60.040;30.320;2024-03-08T19:32:09;3.03;;;1.52;;
66145;SDS011;52948;60.040;30.320;2024-03-08T19:37:13;2.67;;;1.52;;
66145;SDS011;52948;60.040;30.320;2024-03-08T19:42:16;3.25;;;1.40;;
66145;SDS011;52948;60.040;30.320;2024-03-08T19:47:18;3.45;;;1.90;;
66145;SDS011;52948;60.040;30.320;2024-03-08T19:52:21;5.45;;;1.90;;
66145;SDS011;52948;60.040;30.320;2024-03-08T19:57:23;5.68;;;1.95;;
66145;SDS011;52948;60.040;30.320;2024-03-08T20:02:25;5.32;;;1.83;;
66145;SDS011;52948;60.040;30.320;2024-03-08T20:07:28;5.82;;;1.77;;
66145;SDS011;52948;60.040;30.320;2024-03-08T20:12:31;5.68;;;1.75;;
66145;SDS011;52948;60.040;30.320;2024-03-08T20:17:36;3.15;;;1.98;;
66145;SDS011;52948;60.040;30.320;2024-03-08T20:22:41;4.35;;;2.10;;
66145;SDS011;52948;60.040;30.320;2024-03-08T20:27:47;4.47;;;1.67;;
66145;SDS011;52948;60.040;30.320;2024-03-08T20:32:54;5.78;;;2.20;;
66145;SDS011;52948;60.040;30.320;2024-03-08T20:38:00;4.70;;;2.40;;
66145;SDS011;52948;60.040;30.320;2024-03-08T20:43:03;3.63;;;2.00;;
66145;SDS011;52948;60.040;30.320;2024-03-08T20:48:06;6.32;;;2.10;;
66145;SDS011;52948;60.040;30.320;2024-03-08T20:53:08;4.50;;;2.20;;
66145;SDS011;52948;60.040;30.320;2024-03-08T20:58:13;2.65;;;1.67;;
66145;SDS011;52948;60.040;30.320;2024-03-08T21:03:15;4.13;;;1.73;;
66145;SDS011;52948;60.040;30.320;2024-03-08T21:08:20;3.92;;;1.77;;
66145;SDS011;52948;60.040;30.320;2024-03-08T21:13:28;2.42;;;1.40;;
66145;SDS011;52948;60.040;30.320;2024-03-08T21:18:31;4.68;;;2.10;;
66145;SDS011;52948;60.040;30.320;2024-03-08T21:23:33;3.05;;;1.65;;
66145;SDS011;52948;60.040;30.320;2024-03-08T21:28:36;3.53;;;1.58;;
66145;SDS011;52948;60.040;30.320;2024-03-08T21:33:38;1.52;;;1.33;;
66145;SDS011;52948;60.040;30.320;2024-03-08T21:38:41;2.75;;;1.48;;
66145;SDS011;52948;60.040;30.320;2024-03-08T21:43:43;3.15;;;1.70;;
66145;SDS011;52948;60.040;30.320;2024-03-08T21:48:47;3.13;;;1.73;;
66145;SDS011;52948;60.040;30.320;2024-03-08T21:53:49;4.55;;;1.40;;
66145;SDS011;52948;60.040;30.320;2024-03-08T21:58:51;3.38;;;1.65;;
66145;SDS011;52948;60.040;30.320;2024-03-08T22:03:53;2.60;;;1.50;;
66145;SDS011;52948;60.040;30.320;2024-03-08T22:08:56;2.80;;;1.85;;
66145;SDS011;52948;60.040;30.320;2024-03-08T22:14:00;3.80;;;1.70;;
66145;SDS011;52948;60.040;30.320;2024-03-08T22:19:02;3.13;;;1.77;;
66145;SDS011;52948;60.040;30.320;2024-03-08T22:24:06;3.38;;;1.65;;
66145;SDS011;52948;60.040;30.320;2024-03-08T22:29:09;2.78;;;1.50;;
66145;SDS011;52948;60.040;30.320;2024-03-08T22:34:11;1.80;;;1.35;;
66145;SDS011;52948;60.040;30.320;2024-03-08T22:39:14;3.10;;;1.05;;
66145;SDS011;52948;60.040;30.320;2024-03-08T22:44:20;2.05;;;1.50;;
66145;SDS011;52948;60.040;30.320;2024-03-08T22:49:24;3.15;;;1.70;;
66145;SDS011;52948;60.040;30.320;2024-03-08T22:54:27;3.60;;;1.50;;
66145;SDS011;52948;60.040;30.320;2024-03-08T22:59:30;2.47;;;1.40;;
66145;SDS011;52948;60.040;30.320;2024-03-08T23:04:32;2.15;;;1.17;;
66145;SDS011;52948;60.040;30.320;2024-03-08T23:09:35;2.58;;;1.52;;
66145;SDS011;52948;60.040;30.320;2024-03-08T23:14:37;3.13;;;1.33;;
66145;SDS011;52948;60.040;30.320;2024-03-08T23:19:40;2.70;;;1.67;;
66145;SDS011;52948;60.040;30.320;2024-03-08T23:24:44;3.05;;;1.77;;
66145;SDS011;52948;60.040;30.320;2024-03-08T23:29:46;7.15;;;2.05;;
66145;SDS011;52948;60.040;30.320;2024-03-08T23:34:48;2.78;;;1.80;;
66145;SDS011;52948;60.040;30.320;2024-03-08T23:39:50;3.00;;;1.80;;
66145;SDS011;52948;60.040;30.320;2024-03-08T23:44:53;2.78;;;1.50;;
66145;SDS011;52948;60.040;30.320;2024-03-08T23:49:55;3.97;;;1.88;;
66145;SDS011;52948;60.040;30.320;2024-03-08T23:54:57;4.13;;;2.38;;
66145;SDS011;52948;60.040;30.320;2024-03-08T23:59:59;4.30;;;1.85;;
